createdAt,value
2022-12-31T00:02:21.002Z,4.03
2022-12-31T00:04:48.174Z,3.67
2022-12-31T00:07:15.311Z,4.10
2022-12-31T00:09:45.320Z,3.58
2022-12-31T00:12:15.555Z,3.55
2022-12-31T00:14:42.708Z,3.15
2022-12-31T00:17:09.862Z,4.63
2022-12-31T00:19:37.052Z,3.70
2022-12-31T00:22:04.142Z,2.92
2022-12-31T00:24:31.386Z,3.90
2022-12-31T00:26:58.464Z,2.92
2022-12-31T00:29:25.653Z,3.27
2022-12-31T00:31:52.801Z,3.42
2022-12-31T00:34:19.867Z,2.92
2022-12-31T00:36:47.040Z,2.35
2022-12-31T00:39:14.209Z,3.95
2022-12-31T00:41:43.332Z,1.40
2022-12-31T00:44:12.729Z,1.58
2022-12-31T00:49:06.377Z,2.05
2022-12-31T00:51:37.403Z,1.90
2022-12-31T00:54:06.811Z,2.27
2022-12-31T00:56:41.181Z,2.00
2022-12-31T00:59:08.376Z,1.73
2022-12-31T01:01:40.844Z,1.67
2022-12-31T01:04:19.561Z,1.98
2022-12-31T01:06:49.643Z,2.47
2022-12-31T01:09:28.465Z,2.30
2022-12-31T01:11:57.023Z,1.75
2022-12-31T01:14:29.343Z,2.53
2022-12-31T01:17:07.999Z,2.20
2022-12-31T01:19:47.754Z,1.43
2022-12-31T01:22:26.253Z,1.58
2022-12-31T01:24:53.612Z,3.20
2022-12-31T01:27:32.361Z,1.30
2022-12-31T01:30:00.893Z,1.02
2022-12-31T01:32:31.692Z,2.20
2022-12-31T01:35:08.014Z,2.42
2022-12-31T01:37:42.760Z,2.17
2022-12-31T01:40:19.101Z,1.50
2022-12-31T01:42:56.210Z,1.40
2022-12-31T01:46:18.695Z,2.40
2022-12-31T01:48:29.903Z,3.72
2022-12-31T01:51:00.984Z,1.25
2022-12-31T01:53:31.991Z,2.45
2022-12-31T01:56:03.183Z,1.52
2022-12-31T01:58:38.759Z,1.67
2022-12-31T02:01:10.707Z,2.33
2022-12-31T02:03:38.847Z,1.55
2022-12-31T02:06:21.001Z,1.90
2022-12-31T02:08:48.949Z,2.08
2022-12-31T02:11:31.282Z,2.70
2022-12-31T02:14:16.761Z,3.17
2022-12-31T02:17:40.303Z,2.00
2022-12-31T02:20:47.764Z,1.40
2022-12-31T02:23:42.728Z,1.65
2022-12-31T02:26:37.541Z,3.07
2022-12-31T02:29:22.702Z,1.42
2022-12-31T02:32:21.792Z,4.65
2022-12-31T02:35:25.968Z,2.65
2022-12-31T02:38:01.948Z,2.20
2022-12-31T02:40:29.496Z,2.80
2022-12-31T02:42:56.654Z,8.15
2022-12-31T02:45:30.563Z,3.78
2022-12-31T02:48:36.512Z,4.68
2022-12-31T02:51:33.323Z,4.63
2022-12-31T02:54:45.279Z,4.30
2022-12-31T02:57:39.449Z,2.70
2022-12-31T03:00:38.102Z,4.28
2022-12-31T03:03:08.414Z,2.50
2022-12-31T03:05:41.836Z,4.43
2022-12-31T03:08:09.673Z,1.77
2022-12-31T03:10:37.134Z,5.82
2022-12-31T03:13:04.293Z,5.22
2022-12-31T03:15:34.365Z,3.42
2022-12-31T03:18:39.435Z,2.72
2022-12-31T03:21:31.737Z,4.13
2022-12-31T03:24:17.594Z,1.65
2022-12-31T03:26:44.742Z,4.85
2022-12-31T03:29:11.898Z,2.22
2022-12-31T03:31:39.028Z,3.08
2022-12-31T03:34:06.253Z,3.07
2022-12-31T03:36:52.674Z,2.22
2022-12-31T03:39:29.911Z,3.70
2022-12-31T03:42:04.065Z,2.20
2022-12-31T03:44:45.027Z,2.85
2022-12-31T03:47:17.137Z,1.73
2022-12-31T03:49:49.195Z,4.97
2022-12-31T03:52:19.388Z,2.72
2022-12-31T03:54:51.821Z,3.08
2022-12-31T03:57:22.761Z,2.58
2022-12-31T04:00:02.633Z,1.67
2022-12-31T04:02:34.225Z,3.88
2022-12-31T04:05:08.109Z,2.53
2022-12-31T04:07:49.748Z,2.60
2022-12-31T04:10:25.927Z,1.38
2022-12-31T04:13:08.339Z,2.33
2022-12-31T04:16:02.141Z,2.35
2022-12-31T04:18:36.605Z,1.98
2022-12-31T04:21:12.978Z,2.50
2022-12-31T04:23:41.935Z,4.30
2022-12-31T04:26:09.495Z,2.80
2022-12-31T04:28:39.535Z,4.40
2022-12-31T04:31:11.347Z,4.68
2022-12-31T04:33:55.224Z,2.25
2022-12-31T04:36:26.993Z,3.63
2022-12-31T04:39:01.430Z,3.17
2022-12-31T04:44:20.740Z,2.55
2022-12-31T04:47:05.872Z,2.30
2022-12-31T04:49:37.975Z,4.05
2022-12-31T04:52:24.928Z,3.07
2022-12-31T04:54:59.832Z,1.92
2022-12-31T04:57:29.667Z,5.03
2022-12-31T04:59:59.020Z,2.00
2022-12-31T05:02:39.655Z,3.58
2022-12-31T05:05:18.874Z,2.43
2022-12-31T05:07:56.576Z,3.15
2022-12-31T05:10:29.375Z,4.85
2022-12-31T05:13:16.977Z,4.15
2022-12-31T05:15:48.919Z,2.42
2022-12-31T05:18:30.221Z,1.07
2022-12-31T05:21:05.262Z,2.00
2022-12-31T05:23:46.433Z,2.30
2022-12-31T05:26:51.652Z,3.45
2022-12-31T05:29:21.581Z,4.03
2022-12-31T05:32:02.124Z,2.33
2022-12-31T05:34:41.640Z,2.30
2022-12-31T05:37:19.072Z,4.45
2022-12-31T05:39:50.792Z,4.22
2022-12-31T05:42:44.652Z,3.58
2022-12-31T05:45:30.176Z,1.90
2022-12-31T05:48:02.901Z,4.22
2022-12-31T05:50:34.489Z,2.65
2022-12-31T05:53:22.614Z,2.88
2022-12-31T05:55:52.416Z,5.20
2022-12-31T05:58:19.908Z,2.80
2022-12-31T06:01:10.094Z,3.45
2022-12-31T06:03:49.842Z,4.63
2022-12-31T06:06:48.917Z,2.90
2022-12-31T06:09:19.954Z,3.45
2022-12-31T06:11:55.971Z,3.40
2022-12-31T06:14:46.083Z,4.40
2022-12-31T06:17:30.634Z,2.47
2022-12-31T06:22:42.191Z,3.10
2022-12-31T06:25:37.503Z,3.03
2022-12-31T06:28:41.134Z,5.15
2022-12-31T06:31:21.582Z,2.33
2022-12-31T06:33:59.168Z,2.83
2022-12-31T06:36:39.393Z,4.40
2022-12-31T06:39:09.939Z,2.20
2022-12-31T06:42:24.317Z,4.63
2022-12-31T06:44:37.579Z,3.08
2022-12-31T06:47:08.473Z,3.47
2022-12-31T06:49:50.905Z,2.17
2022-12-31T06:52:31.343Z,4.87
2022-12-31T06:55:51.586Z,4.75
2022-12-31T06:58:00.664Z,3.75
2022-12-31T07:00:28.683Z,2.75
2022-12-31T07:03:19.836Z,4.20
2022-12-31T07:06:29.467Z,6.57
2022-12-31T07:09:13.748Z,3.17
2022-12-31T07:12:19.747Z,2.90
2022-12-31T07:14:57.255Z,3.50
2022-12-31T07:18:00.880Z,4.80
2022-12-31T07:20:28.755Z,3.20
2022-12-31T07:22:56.369Z,6.05
2022-12-31T07:25:25.369Z,4.45
2022-12-31T07:28:14.044Z,2.65
2022-12-31T07:31:17.176Z,3.03
2022-12-31T07:34:31.594Z,2.53
2022-12-31T07:37:33.237Z,5.55
2022-12-31T07:40:12.367Z,5.75
2022-12-31T07:43:11.845Z,2.97
2022-12-31T07:46:08.375Z,5.05
2022-12-31T07:48:35.942Z,5.90
2022-12-31T07:51:03.342Z,5.65
2022-12-31T07:53:30.921Z,7.47
2022-12-31T07:56:01.383Z,4.13
2022-12-31T07:58:39.851Z,2.45
2022-12-31T08:01:29.273Z,2.27
2022-12-31T08:03:59.217Z,5.20
2022-12-31T08:07:16.044Z,4.68
2022-12-31T08:10:04.009Z,4.53
2022-12-31T08:12:35.738Z,2.00
2022-12-31T08:15:05.612Z,2.57
2022-12-31T08:17:32.939Z,4.40
2022-12-31T08:20:00.705Z,3.35
2022-12-31T08:22:55.433Z,3.30
2022-12-31T08:25:38.202Z,3.53
2022-12-31T08:28:28.098Z,4.80
2022-12-31T08:31:19.552Z,4.38
2022-12-31T08:34:05.728Z,3.22
2022-12-31T08:36:56.909Z,4.20
2022-12-31T08:39:48.855Z,4.10
2022-12-31T08:42:38.328Z,4.40
2022-12-31T08:45:20.961Z,3.13
2022-12-31T08:48:06.153Z,2.88
2022-12-31T08:50:36.762Z,4.10
2022-12-31T08:53:06.884Z,7.28
2022-12-31T08:55:48.267Z,5.30
2022-12-31T08:59:25.250Z,4.53
2022-12-31T09:02:21.110Z,5.05
2022-12-31T09:05:04.576Z,4.13
2022-12-31T09:08:28.624Z,6.50
2022-12-31T09:11:23.406Z,4.57
2022-12-31T09:14:07.082Z,6.70
2022-12-31T09:17:30.832Z,4.40
2022-12-31T09:19:58.723Z,7.72
2022-12-31T09:22:26.445Z,4.75
2022-12-31T09:24:54.026Z,3.73
2022-12-31T09:28:19.869Z,4.07
2022-12-31T09:30:58.700Z,3.83
2022-12-31T09:33:42.921Z,8.68
2022-12-31T09:36:21.425Z,6.85
2022-12-31T09:39:00.021Z,4.63
2022-12-31T09:41:56.600Z,4.97
2022-12-31T09:45:09.771Z,3.65
2022-12-31T09:48:05.612Z,4.95
2022-12-31T09:51:01.910Z,3.03
2022-12-31T09:54:20.758Z,3.87
2022-12-31T09:57:23.896Z,4.20
2022-12-31T10:00:22.841Z,3.90
2022-12-31T10:03:28.135Z,4.03
2022-12-31T10:06:17.154Z,8.50
2022-12-31T10:09:29.800Z,3.47
2022-12-31T10:12:44.775Z,2.83
2022-12-31T10:15:30.943Z,6.80
2022-12-31T10:18:32.278Z,2.65
2022-12-31T10:21:29.509Z,3.72
2022-12-31T10:24:54.637Z,4.07
2022-12-31T10:27:40.396Z,6.35
2022-12-31T10:30:22.139Z,6.88
2022-12-31T10:33:08.122Z,6.28
2022-12-31T10:35:54.751Z,4.75
2022-12-31T10:38:32.064Z,4.50
2022-12-31T10:41:20.708Z,4.80
2022-12-31T10:44:09.001Z,3.65
2022-12-31T10:47:15.820Z,3.88
2022-12-31T10:50:39.164Z,3.53
2022-12-31T10:53:33.889Z,4.93
2022-12-31T10:56:41.050Z,4.70
2022-12-31T10:59:30.643Z,8.00
2022-12-31T11:02:45.007Z,6.95
2022-12-31T11:05:45.411Z,4.60
2022-12-31T11:09:05.425Z,5.37
2022-12-31T11:11:52.474Z,4.82
2022-12-31T11:14:48.019Z,4.78
2022-12-31T11:17:36.138Z,5.32
2022-12-31T11:20:30.428Z,11.32
2022-12-31T11:23:37.634Z,4.50
2022-12-31T11:26:46.670Z,4.75
2022-12-31T11:29:47.757Z,6.97
2022-12-31T11:32:55.236Z,6.13
2022-12-31T11:35:43.778Z,7.28
2022-12-31T11:38:30.013Z,5.53
2022-12-31T11:41:19.368Z,4.38
2022-12-31T11:43:54.794Z,4.35
2022-12-31T11:47:21.243Z,6.07
2022-12-31T11:50:25.107Z,5.07
2022-12-31T11:53:13.074Z,2.60
2022-12-31T11:56:13.180Z,6.65
2022-12-31T11:58:53.281Z,3.47
2022-12-31T12:01:40.100Z,3.75
2022-12-31T12:04:10.509Z,5.32
2022-12-31T12:06:40.150Z,5.23
2022-12-31T12:09:25.753Z,5.70
2022-12-31T12:12:06.576Z,6.15
2022-12-31T12:14:44.375Z,4.70
2022-12-31T12:17:26.874Z,6.10
2022-12-31T12:20:18.840Z,5.70
2022-12-31T12:23:09.564Z,5.85
2022-12-31T12:25:58.132Z,7.82
2022-12-31T12:28:49.117Z,6.47
2022-12-31T12:31:27.984Z,3.63
2022-12-31T12:34:09.137Z,3.97
2022-12-31T12:36:50.284Z,4.10
2022-12-31T12:39:48.546Z,4.53
2022-12-31T12:42:36.695Z,10.98
2022-12-31T12:45:59.386Z,5.85
2022-12-31T12:49:14.697Z,8.67
2022-12-31T12:52:59.123Z,5.30
2022-12-31T12:55:55.141Z,5.90
2022-12-31T12:59:07.815Z,5.88
2022-12-31T13:02:20.513Z,4.10
2022-12-31T13:05:28.375Z,4.40
2022-12-31T13:08:43.754Z,5.70
2022-12-31T13:11:21.770Z,7.30
2022-12-31T13:14:06.376Z,8.18
2022-12-31T13:17:33.944Z,5.60
2022-12-31T13:20:52.310Z,7.03
2022-12-31T13:23:54.189Z,5.82
2022-12-31T13:26:45.563Z,6.88
2022-12-31T13:29:19.749Z,7.38
2022-12-31T13:31:53.186Z,10.57
2022-12-31T13:34:53.809Z,8.20
2022-12-31T13:37:37.085Z,4.38
2022-12-31T13:40:41.821Z,5.13
2022-12-31T13:43:37.582Z,6.25
2022-12-31T13:46:25.721Z,4.90
2022-12-31T13:48:58.544Z,8.43
2022-12-31T13:51:49.800Z,6.50
2022-12-31T13:54:45.869Z,7.82
2022-12-31T13:57:43.412Z,11.43
2022-12-31T14:00:42.358Z,5.03
2022-12-31T14:03:22.743Z,6.03
2022-12-31T14:06:04.243Z,7.32
2022-12-31T14:08:31.806Z,6.10
2022-12-31T14:11:18.373Z,8.77
2022-12-31T14:14:07.409Z,8.38
2022-12-31T14:16:50.946Z,10.27
2022-12-31T14:19:49.579Z,6.03
2022-12-31T14:22:47.675Z,5.32
2022-12-31T14:26:01.062Z,5.35
2022-12-31T14:28:47.083Z,6.75
2022-12-31T14:31:53.095Z,6.10
2022-12-31T14:35:08.245Z,6.50
2022-12-31T14:37:51.503Z,6.88
2022-12-31T14:40:53.266Z,5.97
2022-12-31T14:44:08.197Z,5.32
2022-12-31T14:47:06.187Z,5.97
2022-12-31T14:49:59.547Z,5.30
2022-12-31T14:52:34.283Z,5.10
2022-12-31T14:55:10.434Z,6.05
2022-12-31T14:58:25.295Z,5.00
2022-12-31T15:00:44.697Z,8.27
2022-12-31T15:03:14.607Z,5.88
2022-12-31T15:06:01.388Z,5.50
2022-12-31T15:09:08.207Z,4.90
2022-12-31T15:12:09.547Z,5.18
2022-12-31T15:15:06.367Z,7.73
2022-12-31T15:18:17.250Z,5.88
2022-12-31T15:21:33.349Z,6.43
2022-12-31T15:24:13.000Z,7.38
2022-12-31T15:26:53.614Z,6.63
2022-12-31T15:29:53.299Z,6.30
2022-12-31T15:32:44.124Z,6.35
2022-12-31T15:35:23.466Z,4.78
2022-12-31T15:38:38.947Z,6.18
2022-12-31T15:42:02.985Z,6.15
2022-12-31T15:44:56.726Z,5.80
2022-12-31T15:47:49.804Z,5.00
2022-12-31T15:50:23.341Z,6.78
2022-12-31T15:53:00.732Z,5.22
2022-12-31T15:55:41.040Z,6.50
2022-12-31T15:58:16.255Z,6.27
2022-12-31T16:01:00.197Z,5.75
2022-12-31T16:03:50.964Z,4.60
2022-12-31T16:06:42.749Z,7.72
2022-12-31T16:09:34.815Z,6.00
2022-12-31T16:12:37.088Z,5.43
2022-12-31T16:15:24.528Z,6.25
2022-12-31T16:18:10.633Z,5.88
2022-12-31T16:21:04.435Z,5.68
2022-12-31T16:23:42.363Z,5.35
2022-12-31T16:26:16.857Z,5.63
2022-12-31T16:28:52.593Z,2.85
2022-12-31T16:31:34.726Z,4.72
2022-12-31T16:34:29.615Z,6.88
2022-12-31T16:37:24.942Z,4.68
2022-12-31T16:40:33.923Z,5.10
2022-12-31T16:43:37.412Z,4.60
2022-12-31T16:46:31.370Z,6.35
2022-12-31T16:49:15.862Z,5.07
2022-12-31T16:51:43.284Z,5.93
2022-12-31T16:54:24.957Z,4.67
2022-12-31T16:56:52.560Z,5.85
2022-12-31T16:59:42.276Z,5.68
2022-12-31T17:02:37.156Z,5.97
2022-12-31T17:05:05.106Z,4.43
2022-12-31T17:07:32.222Z,7.27
2022-12-31T17:10:06.720Z,9.48
2022-12-31T17:13:17.476Z,5.63
2022-12-31T17:15:39.902Z,7.95
2022-12-31T17:18:08.257Z,5.50
2022-12-31T17:20:38.082Z,7.23
2022-12-31T17:23:30.894Z,7.40
2022-12-31T17:26:24.259Z,9.25
2022-12-31T17:29:01.423Z,5.53
2022-12-31T17:32:06.673Z,5.22
2022-12-31T17:35:13.965Z,6.93
2022-12-31T17:40:51.856Z,8.57
2022-12-31T17:43:57.965Z,4.85
2022-12-31T17:46:43.538Z,4.68
2022-12-31T17:49:36.209Z,7.13
2022-12-31T17:52:30.294Z,4.38
2022-12-31T17:55:01.380Z,8.88
2022-12-31T17:57:42.491Z,6.45
2022-12-31T18:00:32.187Z,5.32
2022-12-31T18:03:05.856Z,6.20
2022-12-31T18:06:12.903Z,6.97
2022-12-31T18:08:42.663Z,7.25
2022-12-31T18:11:35.643Z,8.80
2022-12-31T18:14:10.671Z,6.45
2022-12-31T18:16:45.433Z,7.57
2022-12-31T18:19:45.820Z,6.45
2022-12-31T18:22:21.466Z,4.40
2022-12-31T18:25:17.900Z,6.22
2022-12-31T18:27:55.925Z,6.78
2022-12-31T18:30:33.942Z,8.57
2022-12-31T18:33:20.713Z,5.35
2022-12-31T18:36:10.041Z,5.45
2022-12-31T18:38:47.183Z,5.15
2022-12-31T18:41:31.639Z,9.07
2022-12-31T18:44:06.751Z,7.57
2022-12-31T18:46:36.706Z,6.10
2022-12-31T18:49:36.998Z,8.65
2022-12-31T18:52:26.878Z,7.30
2022-12-31T18:55:08.444Z,8.13
2022-12-31T18:57:49.079Z,3.97
2022-12-31T19:00:36.131Z,6.75
2022-12-31T19:03:20.059Z,5.50
2022-12-31T19:05:56.807Z,7.30
2022-12-31T19:08:35.816Z,7.10
2022-12-31T19:11:29.190Z,11.20
2022-12-31T19:14:00.487Z,7.47
2022-12-31T19:16:28.235Z,8.00
2022-12-31T19:19:12.130Z,8.23
2022-12-31T19:23:26.336Z,7.97
2022-12-31T19:25:05.521Z,6.43
2022-12-31T19:27:57.940Z,6.85
2022-12-31T19:30:47.991Z,7.82
2022-12-31T19:33:29.457Z,8.40
2022-12-31T19:36:03.651Z,5.47
2022-12-31T19:39:11.562Z,6.50
2022-12-31T19:41:59.879Z,6.97
2022-12-31T19:44:40.353Z,6.97
2022-12-31T19:47:22.703Z,6.57
2022-12-31T19:49:54.772Z,5.40
2022-12-31T19:52:56.476Z,6.93
2022-12-31T19:55:49.435Z,8.15
2022-12-31T19:58:46.033Z,5.28
2022-12-31T20:01:30.002Z,4.85
2022-12-31T20:06:54.720Z,9.10
2022-12-31T20:09:54.893Z,5.90
2022-12-31T20:12:52.802Z,6.90
2022-12-31T20:15:53.575Z,4.93
2022-12-31T20:18:41.361Z,6.20
2022-12-31T20:21:42.691Z,4.40
2022-12-31T20:27:33.145Z,4.50
2022-12-31T20:30:59.168Z,7.40
2022-12-31T20:34:08.293Z,4.85
2022-12-31T20:37:32.633Z,7.33
2022-12-31T20:40:44.549Z,5.55
2022-12-31T20:45:21.217Z,6.05
2022-12-31T20:50:15.564Z,6.35
2022-12-31T20:55:48.352Z,9.35
2022-12-31T20:58:33.462Z,5.15
2022-12-31T21:02:11.819Z,9.32
2022-12-31T21:04:18.474Z,5.43
2022-12-31T21:07:03.780Z,6.17
2022-12-31T21:09:41.428Z,7.93
2022-12-31T21:12:30.003Z,7.80
2022-12-31T21:15:11.752Z,8.15
2022-12-31T21:17:40.575Z,6.72
2022-12-31T21:20:12.522Z,4.90
2022-12-31T21:22:48.675Z,5.13
2022-12-31T21:25:19.258Z,5.50
2022-12-31T21:27:49.053Z,6.47
2022-12-31T21:30:20.036Z,5.97
2022-12-31T21:32:50.757Z,7.87
2022-12-31T21:35:45.866Z,8.50
2022-12-31T21:38:33.067Z,6.03
2022-12-31T21:41:14.935Z,5.43
2022-12-31T21:43:45.765Z,7.43
2022-12-31T21:47:34.306Z,5.07
2022-12-31T21:49:22.398Z,6.50
2022-12-31T21:52:12.144Z,5.13
2022-12-31T21:55:02.484Z,10.10
2022-12-31T21:58:30.220Z,5.93
2022-12-31T22:00:52.256Z,12.77
2022-12-31T22:03:33.520Z,7.72
2022-12-31T22:06:23.032Z,7.45
2022-12-31T22:08:53.616Z,5.35
2022-12-31T22:11:23.649Z,6.32
2022-12-31T22:13:54.245Z,7.83
2022-12-31T22:16:25.934Z,8.02
2022-12-31T22:18:56.250Z,9.10
2022-12-31T22:21:28.097Z,8.35
2022-12-31T22:26:50.059Z,7.60
2022-12-31T22:29:22.813Z,7.90
2022-12-31T22:31:55.578Z,9.43
2022-12-31T22:34:31.194Z,5.22
2022-12-31T22:37:00.111Z,8.13
2022-12-31T22:39:49.347Z,7.30
2022-12-31T22:42:24.045Z,9.20
2022-12-31T22:44:52.768Z,6.72
2022-12-31T22:47:27.747Z,6.72
2022-12-31T22:49:55.363Z,6.50
2022-12-31T22:52:25.275Z,5.97
2022-12-31T22:54:56.106Z,5.95
2022-12-31T22:57:27.154Z,7.78
2022-12-31T23:00:00.640Z,8.38
2022-12-31T23:03:22.032Z,6.88
2022-12-31T23:05:25.523Z,6.57
2022-12-31T23:08:15.623Z,6.45
2022-12-31T23:11:10.083Z,6.55
2022-12-31T23:14:06.090Z,9.27
2022-12-31T23:16:55.964Z,7.22
2022-12-31T23:19:52.180Z,6.67
2022-12-31T23:22:43.528Z,6.78
2022-12-31T23:25:19.995Z,8.13
2022-12-31T23:27:52.794Z,5.47
2022-12-31T23:30:27.173Z,9.30
2022-12-31T23:32:55.829Z,5.33
2022-12-31T23:35:30.920Z,6.35
2022-12-31T23:38:19.971Z,6.43
2022-12-31T23:40:50.198Z,8.10
2022-12-31T23:43:25.229Z,6.00
2022-12-31T23:46:51.001Z,7.07
2022-12-31T23:50:10.308Z,6.95
2022-12-31T23:52:56.484Z,5.75
2022-12-31T23:55:45.391Z,8.45
2022-12-31T23:58:27.913Z,6.97
